sensor_id;sensor_type;location;lat;lon;timestamp;pressure;altitude;pressure_sealevel;temperature;humidity
3142;BME280;1581;51.568;6.998;2023-02-14T00:00:52;102781.59;;;4.77;100.00
3142;BME280;1581;51.568;6.998;2023-02-14T00:03:20;102781.41;;;4.80;100.00
3142;BME280;1581;51.568;6.998;2023-02-14T00:05:48;102781.47;;;4.66;100.00
3142;BME280;1581;51.568;6.998;2023-02-14T00:08:15;102787.19;;;4.72;100.00
3142;BME280;1581;51.568;6.998;2023-02-14T00:10:45;102782.00;;;4.71;100.00
3142;BME280;1581;51.568;6.998;2023-02-14T00:13:12;102780.31;;;4.70;100.00
3142;BME280;1581;51.568;6.998;2023-02-14T00:15:40;102774.47;;;4.65;100.00
3142;BME280;1581;51.568;6.998;2023-02-14T00:18:06;102772.38;;;4.57;100.00
3142;BME280;1581;51.568;6.998;2023-02-14T00:20:34;102770.53;;;4.45;100.00
3142;BME280;1581;51.568;6.998;2023-02-14T00:23:02;102769.59;;;4.46;100.00
3142;BME280;1581;51.568;6.998;2023-02-14T00:25:29;102778.16;;;4.50;100.00
3142;BME280;1581;51.568;6.998;2023-02-14T00:27:58;102781.72;;;4.49;100.00
3142;BME280;1581;51.568;6.998;2023-02-14T00:30:26;102778.25;;;4.48;100.00
3142;BME280;1581;51.568;6.998;2023-02-14T00:32:54;102779.28;;;4.46;100.00
3142;BME280;1581;51.568;6.998;2023-02-14T00:35:22;102772.41;;;4.43;100.00
3142;BME280;1581;51.568;6.998;2023-02-14T00:37:50;102780.63;;;4.39;100.00
3142;BME280;1581;51.568;6.998;2023-02-14T00:40:17;102765.75;;;4.38;100.00
3142;BME280;1581;51.568;6.998;2023-02-14T00:42:45;102771.97;;;4.37;100.00
3142;BME280;1581;51.568;6.998;2023-02-14T00:45:14;102774.06;;;4.32;100.00
3142;BME280;1581;51.568;6.998;2023-02-14T00:47:44;102775.56;;;4.36;100.00
3142;BME280;1581;51.568;6.998;2023-02-14T00:50:11;102772.75;;;4.25;100.00
3142;BME280;1581;51.568;6.998;2023-02-14T00:52:39;102779.84;;;4.24;100.00
3142;BME280;1581;51.568;6.998;2023-02-14T00:55:07;102776.25;;;4.25;100.00
3142;BME280;1581;51.568;6.998;2023-02-14T00:57:34;102777.22;;;4.24;100.00
3142;BME280;1581;51.568;6.998;2023-02-14T01:00:03;102783.53;;;4.22;100.00
3142;BME280;1581;51.568;6.998;2023-02-14T01:02:32;102775.69;;;4.21;100.00
3142;BME280;1581;51.568;6.998;2023-02-14T01:05:00;102779.50;;;4.17;100.00
3142;BME280;1581;51.568;6.998;2023-02-14T01:07:28;102783.59;;;4.21;100.00
3142;BME280;1581;51.568;6.998;2023-02-14T01:09:55;102790.81;;;4.19;100.00
3142;BME280;1581;51.568;6.998;2023-02-14T01:12:23;102786.84;;;4.12;100.00
3142;BME280;1581;51.568;6.998;2023-02-14T01:14:51;102785.06;;;4.12;100.00
3142;BME280;1581;51.568;6.998;2023-02-14T01:17:19;102776.09;;;4.15;100.00
3142;BME280;1581;51.568;6.998;2023-02-14T01:19:51;102782.44;;;4.12;100.00
3142;BME280;1581;51.568;6.998;2023-02-14T01:22:19;102777.53;;;4.06;100.00
3142;BME280;1581;51.568;6.998;2023-02-14T01:24:46;102774.16;;;4.04;100.00
3142;BME280;1581;51.568;6.998;2023-02-14T01:27:14;102777.06;;;4.00;100.00
3142;BME280;1581;51.568;6.998;2023-02-14T01:29:42;102772.75;;;3.99;100.00
3142;BME280;1581;51.568;6.998;2023-02-14T01:32:09;102771.91;;;3.98;100.00
3142;BME280;1581;51.568;6.998;2023-02-14T01:34:37;102763.88;;;4.00;100.00
3142;BME280;1581;51.568;6.998;2023-02-14T01:37:06;102769.66;;;3.92;100.00
3142;BME280;1581;51.568;6.998;2023-02-14T01:39:34;102776.63;;;3.93;100.00
3142;BME280;1581;51.568;6.998;2023-02-14T01:42:02;102781.03;;;3.93;100.00
3142;BME280;1581;51.568;6.998;2023-02-14T01:44:57;102783.31;;;3.85;100.00
3142;BME280;1581;51.568;6.998;2023-02-14T01:47:27;102782.09;;;3.90;100.00
3142;BME280;1581;51.568;6.998;2023-02-14T01:49:59;102775.41;;;3.85;100.00
3142;BME280;1581;51.568;6.998;2023-02-14T01:52:33;102772.72;;;3.72;100.00
3142;BME280;1581;51.568;6.998;2023-02-14T01:55:04;102772.41;;;3.77;100.00
3142;BME280;1581;51.568;6.998;2023-02-14T01:57:38;102774.75;;;3.81;100.00
3142;BME280;1581;51.568;6.998;2023-02-14T02:00:08;102774.19;;;3.76;100.00
3142;BME280;1581;51.568;6.998;2023-02-14T02:02:54;102772.59;;;3.74;100.00
3142;BME280;1581;51.568;6.998;2023-02-14T02:05:23;102767.44;;;3.72;100.00
3142;BME280;1581;51.568;6.998;2023-02-14T02:07:55;102763.00;;;3.73;100.00
3142;BME280;1581;51.568;6.998;2023-02-14T02:10:24;102761.88;;;3.63;100.00
3142;BME280;1581;51.568;6.998;2023-02-14T02:12:53;102759.25;;;3.63;100.00
3142;BME280;1581;51.568;6.998;2023-02-14T02:15:24;102757.34;;;3.65;100.00
3142;BME280;1581;51.568;6.998;2023-02-14T02:17:59;102756.25;;;3.69;100.00
3142;BME280;1581;51.568;6.998;2023-02-14T02:21:31;102750.28;;;3.65;100.00
3142;BME280;1581;51.568;6.998;2023-02-14T02:24:25;102754.06;;;3.61;100.00
3142;BME280;1581;51.568;6.998;2023-02-14T02:28:02;102746.91;;;3.63;100.00
3142;BME280;1581;51.568;6.998;2023-02-14T02:31:05;102739.94;;;3.62;100.00
3142;BME280;1581;51.568;6.998;2023-02-14T02:34:29;102740.41;;;3.55;100.00
3142;BME280;1581;51.568;6.998;2023-02-14T02:37:28;102735.91;;;3.57;100.00
3142;BME280;1581;51.568;6.998;2023-02-14T02:40:14;102737.69;;;3.56;100.00
3142;BME280;1581;51.568;6.998;2023-02-14T02:42:51;102732.16;;;3.47;100.00
3142;BME280;1581;51.568;6.998;2023-02-14T02:45:30;102727.44;;;3.52;100.00
3142;BME280;1581;51.568;6.998;2023-02-14T02:48:30;102726.78;;;3.48;100.00
3142;BME280;1581;51.568;6.998;2023-02-14T02:51:03;102725.72;;;3.51;100.00
3142;BME280;1581;51.568;6.998;2023-02-14T02:53:57;102726.59;;;3.51;100.00
3142;BME280;1581;51.568;6.998;2023-02-14T02:56:31;102732.63;;;3.53;100.00
3142;BME280;1581;51.568;6.998;2023-02-14T02:59:18;102728.28;;;3.52;100.00
3142;BME280;1581;51.568;6.998;2023-02-14T03:01:54;102728.06;;;3.55;100.00
3142;BME280;1581;51.568;6.998;2023-02-14T03:04:25;102726.38;;;3.54;100.00
3142;BME280;1581;51.568;6.998;2023-02-14T03:07:33;102722.44;;;3.47;100.00
3142;BME280;1581;51.568;6.998;2023-02-14T03:10:10;102721.50;;;3.48;100.00
3142;BME280;1581;51.568;6.998;2023-02-14T03:18:54;102718.97;;;3.47;100.00
3142;BME280;1581;51.568;6.998;2023-02-14T03:21:51;102729.97;;;3.39;100.00
3142;BME280;1581;51.568;6.998;2023-02-14T03:24:26;102725.75;;;3.37;100.00
3142;BME280;1581;51.568;6.998;2023-02-14T03:27:05;102727.34;;;3.39;100.00
3142;BME280;1581;51.568;6.998;2023-02-14T03:29:49;102720.66;;;3.34;100.00
3142;BME280;1581;51.568;6.998;2023-02-14T03:32:30;102732.81;;;3.37;100.00
3142;BME280;1581;51.568;6.998;2023-02-14T03:35:06;102728.03;;;3.29;100.00
3142;BME280;1581;51.568;6.998;2023-02-14T03:37:40;102726.22;;;3.30;100.00
3142;BME280;1581;51.568;6.998;2023-02-14T03:40:17;102734.88;;;3.32;100.00
3142;BME280;1581;51.568;6.998;2023-02-14T03:42:52;102722.00;;;3.27;100.00
3142;BME280;1581;51.568;6.998;2023-02-14T03:45:25;102735.63;;;3.20;100.00
3142;BME280;1581;51.568;6.998;2023-02-14T03:47:59;102728.56;;;3.20;100.00
3142;BME280;1581;51.568;6.998;2023-02-14T03:50:29;102733.09;;;3.18;100.00
3142;BME280;1581;51.568;6.998;2023-02-14T03:52:58;102741.06;;;3.17;100.00
3142;BME280;1581;51.568;6.998;2023-02-14T03:55:33;102730.81;;;3.12;100.00
3142;BME280;1581;51.568;6.998;2023-02-14T03:58:09;102751.06;;;3.12;100.00
3142;BME280;1581;51.568;6.998;2023-02-14T04:00:41;102744.09;;;3.11;100.00
3142;BME280;1581;51.568;6.998;2023-02-14T04:03:13;102735.25;;;3.12;100.00
3142;BME280;1581;51.568;6.998;2023-02-14T04:05:45;102748.59;;;3.09;100.00
3142;BME280;1581;51.568;6.998;2023-02-14T04:08:21;102742.69;;;3.05;100.00
3142;BME280;1581;51.568;6.998;2023-02-14T04:10:49;102741.75;;;3.06;100.00
3142;BME280;1581;51.568;6.998;2023-02-14T04:13:18;102737.13;;;3.10;100.00
3142;BME280;1581;51.568;6.998;2023-02-14T04:15:45;102729.69;;;3.02;100.00
3142;BME280;1581;51.568;6.998;2023-02-14T04:18:13;102733.25;;;3.01;100.00
3142;BME280;1581;51.568;6.998;2023-02-14T04:20:58;102723.59;;;3.02;100.00
3142;BME280;1581;51.568;6.998;2023-02-14T04:23:26;102724.34;;;3.04;100.00
3142;BME280;1581;51.568;6.998;2023-02-14T04:25:53;102721.03;;;3.00;100.00
3142;BME280;1581;51.568;6.998;2023-02-14T04:28:23;102728.09;;;3.00;100.00
3142;BME280;1581;51.568;6.998;2023-02-14T04:30:50;102728.84;;;3.02;100.00
3142;BME280;1581;51.568;6.998;2023-02-14T04:33:18;102730.81;;;2.98;100.00
3142;BME280;1581;51.568;6.998;2023-02-14T04:35:47;102720.19;;;3.00;100.00
3142;BME280;1581;51.568;6.998;2023-02-14T04:38:14;102719.53;;;2.96;100.00
3142;BME280;1581;51.568;6.998;2023-02-14T04:40:42;102721.03;;;3.00;100.00
3142;BME280;1581;51.568;6.998;2023-02-14T04:43:10;102713.13;;;3.00;100.00
3142;BME280;1581;51.568;6.998;2023-02-14T04:45:38;102719.34;;;2.99;100.00
3142;BME280;1581;51.568;6.998;2023-02-14T04:48:06;102718.13;;;2.91;100.00
3142;BME280;1581;51.568;6.998;2023-02-14T04:50:34;102718.13;;;2.91;100.00
3142;BME280;1581;51.568;6.998;2023-02-14T04:53:01;102711.25;;;2.88;100.00
3142;BME280;1581;51.568;6.998;2023-02-14T04:55:29;102712.19;;;2.87;100.00
3142;BME280;1581;51.568;6.998;2023-02-14T04:57:57;102708.34;;;2.93;100.00
3142;BME280;1581;51.568;6.998;2023-02-14T05:00:24;102702.41;;;2.89;100.00
3142;BME280;1581;51.568;6.998;2023-02-14T05:02:53;102701.56;;;2.89;100.00
3142;BME280;1581;51.568;6.998;2023-02-14T05:05:21;102694.75;;;2.85;100.00
3142;BME280;1581;51.568;6.998;2023-02-14T05:07:49;102702.75;;;2.83;100.00
3142;BME280;1581;51.568;6.998;2023-02-14T05:10:16;102686.13;;;2.83;100.00
3142;BME280;1581;51.568;6.998;2023-02-14T05:12:44;102694.97;;;2.82;100.00
3142;BME280;1581;51.568;6.998;2023-02-14T05:15:12;102687.06;;;2.82;100.00
3142;BME280;1581;51.568;6.998;2023-02-14T05:17:39;102691.75;;;2.77;100.00
3142;BME280;1581;51.568;6.998;2023-02-14T05:20:09;102695.59;;;2.71;100.00
3142;BME280;1581;51.568;6.998;2023-02-14T05:22:37;102698.66;;;2.79;100.00
3142;BME280;1581;51.568;6.998;2023-02-14T05:25:05;102686.59;;;2.75;100.00
3142;BME280;1581;51.568;6.998;2023-02-14T05:27:33;102689.97;;;2.77;100.00
3142;BME280;1581;51.568;6.998;2023-02-14T05:30:01;102680.28;;;2.78;100.00
3142;BME280;1581;51.568;6.998;2023-02-14T05:32:29;102685.00;;;2.73;100.00
3142;BME280;1581;51.568;6.998;2023-02-14T05:34:56;102684.22;;;2.71;100.00
3142;BME280;1581;51.568;6.998;2023-02-14T05:37:25;102677.00;;;2.74;100.00
3142;BME280;1581;51.568;6.998;2023-02-14T05:39:53;102683.19;;;2.73;100.00
3142;BME280;1581;51.568;6.998;2023-02-14T05:42:21;102682.63;;;2.68;100.00
3142;BME280;1581;51.568;6.998;2023-02-14T05:44:48;102679.41;;;2.63;100.00
3142;BME280;1581;51.568;6.998;2023-02-14T05:47:16;102681.00;;;2.66;100.00
3142;BME280;1581;51.568;6.998;2023-02-14T05:49:43;102674.44;;;2.59;100.00
3142;BME280;1581;51.568;6.998;2023-02-14T05:52:11;102678.47;;;2.64;100.00
3142;BME280;1581;51.568;6.998;2023-02-14T05:54:40;102681.22;;;2.63;100.00
3142;BME280;1581;51.568;6.998;2023-02-14T05:57:07;102677.81;;;2.61;100.00
3142;BME280;1581;51.568;6.998;2023-02-14T05:59:35;102668.59;;;2.54;100.00
3142;BME280;1581;51.568;6.998;2023-02-14T06:02:02;102672.72;;;2.58;100.00
3142;BME280;1581;51.568;6.998;2023-02-14T06:04:30;102670.28;;;2.55;100.00
3142;BME280;1581;51.568;6.998;2023-02-14T06:06:58;102679.13;;;2.54;100.00
3142;BME280;1581;51.568;6.998;2023-02-14T06:09:25;102677.22;;;2.56;100.00
3142;BME280;1581;51.568;6.998;2023-02-14T06:11:54;102675.81;;;2.51;100.00
3142;BME280;1581;51.568;6.998;2023-02-14T06:14:22;102688.63;;;2.56;100.00
3142;BME280;1581;51.568;6.998;2023-02-14T06:16:49;102692.19;;;2.55;100.00
3142;BME280;1581;51.568;6.998;2023-02-14T06:19:17;102690.66;;;2.52;100.00
3142;BME280;1581;51.568;6.998;2023-02-14T06:21:47;102697.72;;;2.51;100.00
3142;BME280;1581;51.568;6.998;2023-02-14T06:24:15;102698.56;;;2.52;100.00
3142;BME280;1581;51.568;6.998;2023-02-14T06:26:42;102695.25;;;2.48;100.00
3142;BME280;1581;51.568;6.998;2023-02-14T06:29:11;102696.13;;;2.49;100.00
3142;BME280;1581;51.568;6.998;2023-02-14T06:31:39;102701.56;;;2.46;100.00
3142;BME280;1581;51.568;6.998;2023-02-14T06:34:06;102700.53;;;2.48;100.00
3142;BME280;1581;51.568;6.998;2023-02-14T06:36:34;102703.53;;;2.42;100.00
3142;BME280;1581;51.568;6.998;2023-02-14T06:39:02;102708.97;;;2.39;100.00
3142;BME280;1581;51.568;6.998;2023-02-14T06:41:30;102713.19;;;2.42;100.00
3142;BME280;1581;51.568;6.998;2023-02-14T06:43:57;102718.13;;;2.48;100.00
3142;BME280;1581;51.568;6.998;2023-02-14T06:46:26;102721.56;;;2.48;100.00
3142;BME280;1581;51.568;6.998;2023-02-14T06:48:54;102719.13;;;2.45;100.00
3142;BME280;1581;51.568;6.998;2023-02-14T06:51:21;102721.75;;;2.45;100.00
3142;BME280;1581;51.568;6.998;2023-02-14T06:53:49;102722.25;;;2.52;100.00
3142;BME280;1581;51.568;6.998;2023-02-14T06:56:16;102721.25;;;2.54;100.00
3142;BME280;1581;51.568;6.998;2023-02-14T06:58:44;102717.56;;;2.56;100.00
3142;BME280;1581;51.568;6.998;2023-02-14T07:01:12;102720.03;;;2.59;100.00
3142;BME280;1581;51.568;6.998;2023-02-14T07:03:41;102724.16;;;2.63;100.00
3142;BME280;1581;51.568;6.998;2023-02-14T07:06:09;102718.22;;;2.60;100.00
3142;BME280;1581;51.568;6.998;2023-02-14T07:08:37;102715.59;;;2.60;100.00
3142;BME280;1581;51.568;6.998;2023-02-14T07:11:05;102718.56;;;2.69;100.00
3142;BME280;1581;51.568;6.998;2023-02-14T07:13:32;102714.88;;;2.72;100.00
3142;BME280;1581;51.568;6.998;2023-02-14T07:16:00;102720.16;;;2.72;100.00
3142;BME280;1581;51.568;6.998;2023-02-14T07:18:27;102720.22;;;2.70;100.00
3142;BME280;1581;51.568;6.998;2023-02-14T07:20:57;102724.66;;;2.70;100.00
3142;BME280;1581;51.568;6.998;2023-02-14T07:23:24;102725.97;;;2.77;100.00
3142;BME280;1581;51.568;6.998;2023-02-14T07:25:52;102727.31;;;2.84;100.00
3142;BME280;1581;51.568;6.998;2023-02-14T07:28:21;102722.78;;;2.86;100.00
3142;BME280;1581;51.568;6.998;2023-02-14T07:30:48;102723.47;;;2.89;100.00
3142;BME280;1581;51.568;6.998;2023-02-14T07:33:16;102722.72;;;2.87;100.00
3142;BME280;1581;51.568;6.998;2023-02-14T07:35:44;102727.81;;;3.04;100.00
3142;BME280;1581;51.568;6.998;2023-02-14T07:38:13;102722.25;;;3.09;100.00
3142;BME280;1581;51.568;6.998;2023-02-14T07:40:43;102719.34;;;3.13;100.00
3142;BME280;1581;51.568;6.998;2023-02-14T07:43:12;102720.00;;;3.17;100.00
3142;BME280;1581;51.568;6.998;2023-02-14T07:45:40;102713.22;;;3.27;100.00
3142;BME280;1581;51.568;6.998;2023-02-14T07:48:11;102712.22;;;3.29;100.00
3142;BME280;1581;51.568;6.998;2023-02-14T07:50:39;102717.94;;;3.36;100.00
3142;BME280;1581;51.568;6.998;2023-02-14T07:53:09;102711.72;;;3.37;100.00
3142;BME280;1581;51.568;6.998;2023-02-14T07:55:40;102718.22;;;3.45;100.00
3142;BME280;1581;51.568;6.998;2023-02-14T07:58:08;102725.94;;;3.48;100.00
3142;BME280;1581;51.568;6.998;2023-02-14T08:00:35;102720.38;;;3.52;100.00
3142;BME280;1581;51.568;6.998;2023-02-14T08:03:03;102718.22;;;3.59;100.00
3142;BME280;1581;51.568;6.998;2023-02-14T08:05:31;102720.63;;;3.62;100.00
3142;BME280;1581;51.568;6.998;2023-02-14T08:07:58;102721.66;;;3.73;100.00
3142;BME280;1581;51.568;6.998;2023-02-14T08:10:26;102721.28;;;3.79;100.00
3142;BME280;1581;51.568;6.998;2023-02-14T08:12:55;102715.69;;;3.84;100.00
3142;BME280;1581;51.568;6.998;2023-02-14T08:15:27;102720.38;;;3.93;100.00
3142;BME280;1581;51.568;6.998;2023-02-14T08:18:13;102714.44;;;4.03;100.00
3142;BME280;1581;51.568;6.998;2023-02-14T08:20:41;102715.72;;;4.10;100.00
3142;BME280;1581;51.568;6.998;2023-02-14T08:23:09;102722.09;;;4.20;100.00
3142;BME280;1581;51.568;6.998;2023-02-14T08:25:37;102713.38;;;4.32;100.00
3142;BME280;1581;51.568;6.998;2023-02-14T08:28:06;102718.25;;;4.38;100.00
3142;BME280;1581;51.568;6.998;2023-02-14T08:30:35;102715.72;;;4.49;100.00
3142;BME280;1581;51.568;6.998;2023-02-14T08:33:04;102717.13;;;4.54;100.00
3142;BME280;1581;51.568;6.998;2023-02-14T08:35:35;102725.28;;;4.64;100.00
3142;BME280;1581;51.568;6.998;2023-02-14T08:38:04;102719.28;;;4.74;100.00
3142;BME280;1581;51.568;6.998;2023-02-14T08:40:33;102721.16;;;4.85;100.00
3142;BME280;1581;51.568;6.998;2023-02-14T08:43:02;102717.50;;;5.00;100.00
3142;BME280;1581;51.568;6.998;2023-02-14T08:45:35;102719.50;;;5.08;100.00
3142;BME280;1581;51.568;6.998;2023-02-14T08:48:04;102720.34;;;5.21;100.00
3142;BME280;1581;51.568;6.998;2023-02-14T08:50:35;102722.34;;;5.30;100.00
3142;BME280;1581;51.568;6.998;2023-02-14T08:53:06;102724.44;;;5.50;100.00
3142;BME280;1581;51.568;6.998;2023-02-14T08:55:35;102718.28;;;5.62;100.00
3142;BME280;1581;51.568;6.998;2023-02-14T08:58:04;102720.28;;;5.71;100.00
3142;BME280;1581;51.568;6.998;2023-02-14T09:00:34;102717.31;;;5.76;100.00
3142;BME280;1581;51.568;6.998;2023-02-14T09:03:02;102722.78;;;5.85;100.00
3142;BME280;1581;51.568;6.998;2023-02-14T09:05:30;102723.66;;;6.09;100.00
3142;BME280;1581;51.568;6.998;2023-02-14T09:07:57;102714.50;;;6.25;100.00
3142;BME280;1581;51.568;6.998;2023-02-14T09:10:25;102716.81;;;6.30;100.00
3142;BME280;1581;51.568;6.998;2023-02-14T09:12:54;102719.28;;;6.44;100.00
3142;BME280;1581;51.568;6.998;2023-02-14T09:15:24;102706.34;;;6.63;100.00
3142;BME280;1581;51.568;6.998;2023-02-14T09:17:53;102705.03;;;6.68;100.00
3142;BME280;1581;51.568;6.998;2023-02-14T09:20:21;102706.84;;;6.79;100.00
3142;BME280;1581;51.568;6.998;2023-02-14T09:22:49;102704.72;;;6.83;100.00
3142;BME280;1581;51.568;6.998;2023-02-14T09:25:17;102702.53;;;6.88;100.00
3142;BME280;1581;51.568;6.998;2023-02-14T09:27:45;102694.47;;;7.01;100.00
3142;BME280;1581;51.568;6.998;2023-02-14T09:30:15;102687.88;;;7.28;100.00
3142;BME280;1581;51.568;6.998;2023-02-14T09:32:42;102677.88;;;7.43;100.00
3142;BME280;1581;51.568;6.998;2023-02-14T09:35:12;102674.13;;;7.45;100.00
3142;BME280;1581;51.568;6.998;2023-02-14T09:37:40;102675.81;;;7.46;100.00
3142;BME280;1581;51.568;6.998;2023-02-14T09:40:25;102677.00;;;7.64;100.00
3142;BME280;1581;51.568;6.998;2023-02-14T09:43:06;102677.34;;;7.70;100.00
3142;BME280;1581;51.568;6.998;2023-02-14T09:45:38;102680.13;;;7.69;100.00
3142;BME280;1581;51.568;6.998;2023-02-14T09:48:13;102679.75;;;7.84;100.00
3142;BME280;1581;51.568;6.998;2023-02-14T09:50:48;102686.25;;;7.80;100.00
3142;BME280;1581;51.568;6.998;2023-02-14T09:53:24;102685.03;;;7.95;100.00
3142;BME280;1581;51.568;6.998;2023-02-14T09:56:00;102673.53;;;8.06;100.00
3142;BME280;1581;51.568;6.998;2023-02-14T09:58:34;102674.72;;;8.13;100.00
3142;BME280;1581;51.568;6.998;2023-02-14T10:01:12;102680.81;;;8.35;100.00
3142;BME280;1581;51.568;6.998;2023-02-14T10:03:59;102684.38;;;8.45;100.00
3142;BME280;1581;51.568;6.998;2023-02-14T10:06:52;102682.41;;;8.58;100.00
3142;BME280;1581;51.568;6.998;2023-02-14T10:09:46;102676.59;;;8.73;100.00
3142;BME280;1581;51.568;6.998;2023-02-14T10:12:23;102679.47;;;8.81;100.00
3142;BME280;1581;51.568;6.998;2023-02-14T10:14:55;102680.09;;;8.94;100.00
3142;BME280;1581;51.568;6.998;2023-02-14T10:17:35;102681.00;;;9.04;100.00
3142;BME280;1581;51.568;6.998;2023-02-14T10:20:16;102679.78;;;9.08;100.00
3142;BME280;1581;51.568;6.998;2023-02-14T10:22:54;102681.22;;;9.22;100.00
3142;BME280;1581;51.568;6.998;2023-02-14T10:25:28;102680.47;;;9.10;100.00
3142;BME280;1581;51.568;6.998;2023-02-14T10:28:00;102681.28;;;9.31;100.00
3142;BME280;1581;51.568;6.998;2023-02-14T10:30:36;102676.38;;;9.36;100.00
3142;BME280;1581;51.568;6.998;2023-02-14T10:33:12;102673.72;;;9.36;100.00
3142;BME280;1581;51.568;6.998;2023-02-14T10:35:47;102673.94;;;9.53;100.00
3142;BME280;1581;51.568;6.998;2023-02-14T10:38:29;102673.28;;;9.70;100.00
3142;BME280;1581;51.568;6.998;2023-02-14T10:41:13;102670.25;;;9.84;100.00
3142;BME280;1581;51.568;6.998;2023-02-14T10:43:52;102669.13;;;9.87;100.00
3142;BME280;1581;51.568;6.998;2023-02-14T10:46:37;102664.56;;;10.08;100.00
3142;BME280;1581;51.568;6.998;2023-02-14T10:49:24;102667.66;;;10.22;100.00
3142;BME280;1581;51.568;6.998;2023-02-14T10:52:00;102667.50;;;10.33;100.00
3142;BME280;1581;51.568;6.998;2023-02-14T10:54:38;102660.50;;;10.32;100.00
3142;BME280;1581;51.568;6.998;2023-02-14T10:57:12;102662.34;;;10.31;100.00
3142;BME280;1581;51.568;6.998;2023-02-14T10:59:49;102656.16;;;10.22;100.00
3142;BME280;1581;51.568;6.998;2023-02-14T11:02:21;102652.09;;;10.27;100.00
3142;BME280;1581;51.568;6.998;2023-02-14T11:04:49;102654.72;;;10.55;100.00
3142;BME280;1581;51.568;6.998;2023-02-14T11:07:20;102645.31;;;10.70;100.00
3142;BME280;1581;51.568;6.998;2023-02-14T11:09:49;102641.06;;;10.87;100.00
3142;BME280;1581;51.568;6.998;2023-02-14T11:12:36;102635.25;;;11.01;100.00
3142;BME280;1581;51.568;6.998;2023-02-14T11:15:16;102643.03;;;10.75;100.00
3142;BME280;1581;51.568;6.998;2023-02-14T11:17:46;102624.84;;;11.07;100.00
3142;BME280;1581;51.568;6.998;2023-02-14T11:20:27;102629.28;;;11.52;100.00
3142;BME280;1581;51.568;6.998;2023-02-14T11:22:56;102622.94;;;11.80;100.00
3142;BME280;1581;51.568;6.998;2023-02-14T11:25:27;102624.00;;;11.70;100.00
3142;BME280;1581;51.568;6.998;2023-02-14T11:27:59;102637.28;;;11.97;100.00
3142;BME280;1581;51.568;6.998;2023-02-14T11:30:33;102630.13;;;12.14;100.00
3142;BME280;1581;51.568;6.998;2023-02-14T11:33:02;102634.41;;;12.07;98.09
3142;BME280;1581;51.568;6.998;2023-02-14T11:35:31;102616.59;;;12.33;98.16
3142;BME280;1581;51.568;6.998;2023-02-14T11:38:02;102619.66;;;12.38;94.88
3142;BME280;1581;51.568;6.998;2023-02-14T11:40:37;102622.22;;;12.48;96.14
3142;BME280;1581;51.568;6.998;2023-02-14T11:43:25;102617.16;;;12.62;95.66
3142;BME280;1581;51.568;6.998;2023-02-14T11:46:07;102612.66;;;12.88;95.79
3142;BME280;1581;51.568;6.998;2023-02-14T11:48:55;102595.19;;;13.01;95.68
3142;BME280;1581;51.568;6.998;2023-02-14T11:51:30;102600.19;;;12.96;94.00
3142;BME280;1581;51.568;6.998;2023-02-14T11:54:01;102601.03;;;12.97;92.76
3142;BME280;1581;51.568;6.998;2023-02-14T11:56:48;102594.88;;;13.04;90.63
3142;BME280;1581;51.568;6.998;2023-02-14T11:59:27;102584.44;;;13.27;89.39
3142;BME280;1581;51.568;6.998;2023-02-14T12:02:00;102572.53;;;13.21;90.06
3142;BME280;1581;51.568;6.998;2023-02-14T12:04:34;102581.09;;;13.33;87.87
3142;BME280;1581;51.568;6.998;2023-02-14T12:07:17;102572.03;;;13.18;87.86
3142;BME280;1581;51.568;6.998;2023-02-14T12:09:47;102572.13;;;13.42;88.42
3142;BME280;1581;51.568;6.998;2023-02-14T12:12:20;102566.28;;;13.54;88.47
3142;BME280;1581;51.568;6.998;2023-02-14T12:14:52;102564.91;;;13.50;85.41
3142;BME280;1581;51.568;6.998;2023-02-14T12:17:43;102562.31;;;13.66;86.05
3142;BME280;1581;51.568;6.998;2023-02-14T12:20:16;102554.78;;;13.77;85.27
3142;BME280;1581;51.568;6.998;2023-02-14T12:22:50;102557.47;;;13.93;85.36
3142;BME280;1581;51.568;6.998;2023-02-14T12:25:24;102552.94;;;14.10;84.63
3142;BME280;1581;51.568;6.998;2023-02-14T12:27:58;102546.78;;;14.17;82.70
3142;BME280;1581;51.568;6.998;2023-02-14T12:30:32;102546.53;;;13.55;80.19
3142;BME280;1581;51.568;6.998;2023-02-14T12:33:01;102535.69;;;13.96;81.56
3142;BME280;1581;51.568;6.998;2023-02-14T12:35:42;102538.41;;;14.20;84.22
3142;BME280;1581;51.568;6.998;2023-02-14T12:38:18;102536.69;;;14.03;77.73
3142;BME280;1581;51.568;6.998;2023-02-14T12:41:01;102539.22;;;14.05;78.49
3142;BME280;1581;51.568;6.998;2023-02-14T12:43:45;102532.19;;;14.20;79.96
3142;BME280;1581;51.568;6.998;2023-02-14T12:46:43;102540.56;;;14.41;78.37
3142;BME280;1581;51.568;6.998;2023-02-14T12:49:37;102536.56;;;14.37;77.07
3142;BME280;1581;51.568;6.998;2023-02-14T12:52:24;102523.47;;;14.34;78.76
3142;BME280;1581;51.568;6.998;2023-02-14T12:55:11;102528.38;;;14.22;76.66
3142;BME280;1581;51.568;6.998;2023-02-14T12:57:50;102523.28;;;14.51;77.11
3142;BME280;1581;51.568;6.998;2023-02-14T13:00:31;102523.94;;;14.45;74.56
3142;BME280;1581;51.568;6.998;2023-02-14T13:03:35;102517.03;;;14.59;76.15
3142;BME280;1581;51.568;6.998;2023-02-14T13:06:13;102506.97;;;14.61;73.73
3142;BME280;1581;51.568;6.998;2023-02-14T13:09:10;102508.03;;;14.28;72.82
3142;BME280;1581;51.568;6.998;2023-02-14T13:11:52;102499.94;;;14.60;75.11
3142;BME280;1581;51.568;6.998;2023-02-14T13:14:44;102503.63;;;14.66;75.13
3142;BME280;1581;51.568;6.998;2023-02-14T13:17:24;102496.09;;;14.54;73.89
3142;BME280;1581;51.568;6.998;2023-02-14T13:20:15;102493.81;;;14.19;70.25
3142;BME280;1581;51.568;6.998;2023-02-14T13:22:51;102489.00;;;14.69;72.13
3142;BME280;1581;51.568;6.998;2023-02-14T13:25:26;102483.00;;;14.97;72.39
3142;BME280;1581;51.568;6.998;2023-02-14T13:28:00;102489.13;;;15.14;72.16
3142;BME280;1581;51.568;6.998;2023-02-14T13:30:30;102490.75;;;15.23;72.11
3142;BME280;1581;51.568;6.998;2023-02-14T13:33:06;102484.00;;;15.35;71.95
3142;BME280;1581;51.568;6.998;2023-02-14T13:35:35;102476.41;;;15.46;71.45
3142;BME280;1581;51.568;6.998;2023-02-14T13:38:09;102481.69;;;15.24;63.67
3142;BME280;1581;51.568;6.998;2023-02-14T13:40:41;102475.88;;;14.82;66.67
3142;BME280;1581;51.568;6.998;2023-02-14T13:43:11;102476.69;;;15.29;65.92
3142;BME280;1581;51.568;6.998;2023-02-14T13:45:56;102474.72;;;15.45;63.25
3142;BME280;1581;51.568;6.998;2023-02-14T13:48:26;102478.59;;;15.43;63.95